Time;durP1;ratioP1;P1;durP2;ratioP2;P2;SDS_P1;SDS_P2;PMS_P1;PMS_P2;Temp;Humidity;BMP_temperature;BMP_pressure;BME280_temperature;BME280_humidity;BME280_pressure;Samples;Min_cycle;Max_cycle;Signal;HPM_P1;HPM_P2
2021/08/14 00:02:15;;;;;;;4.90;1.45;;;16.70;99.90;;;;;;5043438;28;20121;-69
2021/08/14 00:04:41;;;;;;;2.67;1.35;;;16.70;99.90;;;;;;5042997;28;20051;-70
2021/08/14 00:07:06;;;;;;;3.05;1.67;;;16.80;99.90;;;;;;5043070;28;20081;-69
2021/08/14 00:09:35;;;;;;;6.85;1.45;;;16.70;99.90;;;;;;5042790;28;20108;-72
2021/08/14 00:12:08;;;;;;;6.20;1.90;;;16.70;99.90;;;;;;5058571;28;20025;-69
2021/08/14 00:14:34;;;;;;;8.15;1.75;;;16.70;99.90;;;;;;5042969;28;20071;-70
2021/08/14 00:17:01;;;;;;;10.13;1.92;;;16.60;99.90;;;;;;5041837;28;20053;-70
2021/08/14 00:19:28;;;;;;;5.18;1.80;;;16.60;99.90;;;;;;5043097;28;20087;-71
2021/08/14 00:21:53;;;;;;;3.10;1.23;;;16.60;99.90;;;;;;5043393;28;20026;-69
2021/08/14 00:24:19;;;;;;;4.50;1.75;;;16.60;99.90;;;;;;5042672;28;20045;-70
2021/08/14 00:26:45;;;;;;;3.47;1.58;;;16.60;99.90;;;;;;5042576;28;20037;-70
2021/08/14 00:29:10;;;;;;;15.13;2.30;;;16.60;99.90;;;;;;5042781;28;20026;-70
2021/08/14 00:31:36;;;;;;;3.75;1.70;;;16.60;99.90;;;;;;5044793;28;20032;-69
2021/08/14 00:34:01;;;;;;;3.95;1.67;;;16.60;99.90;;;;;;5046895;28;20033;-70
2021/08/14 00:36:29;;;;;;;4.78;1.73;;;16.60;99.90;;;;;;5047045;28;20046;-71
2021/08/14 00:38:56;;;;;;;6.75;2.28;;;16.60;99.90;;;;;;5047236;28;20078;-70
2021/08/14 00:41:22;;;;;;;2.97;1.23;;;16.70;99.90;;;;;;5046944;28;20028;-70
2021/08/14 00:43:48;;;;;;;4.07;1.73;;;16.60;99.90;;;;;;5046652;28;20049;-70
2021/08/14 00:46:14;;;;;;;4.15;2.00;;;16.60;99.90;;;;;;5046562;28;20025;-70
2021/08/14 00:48:40;;;;;;;10.63;1.73;;;16.60;99.90;;;;;;5046948;28;20588;-70
2021/08/14 00:51:09;;;;;;;4.60;1.80;;;16.60;99.90;;;;;;5045206;28;20030;-71
2021/08/14 00:53:36;;;;;;;4.80;1.52;;;16.70;99.90;;;;;;5046522;28;20029;-69
2021/08/14 00:56:02;;;;;;;4.38;1.67;;;16.70;99.90;;;;;;5046197;28;20038;-70
2021/08/14 00:58:29;;;;;;;10.05;1.65;;;16.60;99.90;;;;;;5045320;28;20025;-69
2021/08/14 01:00:56;;;;;;;3.13;1.73;;;16.60;99.90;;;;;;5046268;28;20029;-69
2021/08/14 01:03:24;;;;;;;3.53;1.13;;;16.70;99.90;;;;;;5046511;28;20112;-71
2021/08/14 01:05:49;;;;;;;7.68;1.60;;;16.60;99.90;;;;;;5046332;28;20043;-69
2021/08/14 01:08:15;;;;;;;5.95;2.35;;;16.60;99.90;;;;;;5046424;28;20030;-70
2021/08/14 01:10:43;;;;;;;11.55;2.47;;;16.60;99.90;;;;;;5045943;28;20406;-70
2021/08/14 01:13:08;;;;;;;1.65;1.17;;;16.60;99.90;;;;;;5045769;28;20029;-70
2021/08/14 01:15:35;;;;;;;4.55;1.42;;;16.60;99.90;;;;;;5045969;28;20087;-72
2021/08/14 01:18:01;;;;;;;7.90;2.28;;;16.50;99.90;;;;;;5046163;28;20045;-71
2021/08/14 01:20:27;;;;;;;11.35;1.85;;;16.50;99.90;;;;;;5046307;28;20043;-72
2021/08/14 01:22:53;;;;;;;4.88;1.90;;;16.50;99.90;;;;;;5046075;28;20037;-70
2021/08/14 01:25:19;;;;;;;5.45;1.83;;;16.40;99.90;;;;;;5045874;28;20442;-70
2021/08/14 01:27:45;;;;;;;6.57;2.40;;;16.30;99.90;;;;;;5045875;28;20021;-71
2021/08/14 01:30:13;;;;;;;3.90;1.92;;;16.20;99.90;;;;;;5045528;28;20026;-70
2021/08/14 01:32:40;;;;;;;11.32;2.42;;;16.20;99.90;;;;;;5045537;28;20123;-71
2021/08/14 01:35:07;;;;;;;6.15;2.10;;;16.20;99.90;;;;;;5045924;28;20060;-70
2021/08/14 01:37:33;;;;;;;11.15;2.95;;;16.10;99.90;;;;;;5046023;28;20076;-70
2021/08/14 01:40:07;;;;;;;5.40;1.70;;;16.10;99.90;;;;;;5045883;28;20161;-70
2021/08/14 01:42:33;;;;;;;11.50;3.03;;;16.10;99.90;;;;;;5044758;28;20041;-69
2021/08/14 01:44:59;;;;;;;10.15;2.40;;;16.10;99.90;;;;;;5045957;28;20033;-70
2021/08/14 01:47:24;;;;;;;8.50;2.50;;;16.10;99.90;;;;;;5045370;28;20109;-69
2021/08/14 01:49:50;;;;;;;4.60;2.67;;;16.00;99.90;;;;;;5044781;28;20064;-70
2021/08/14 01:52:17;;;;;;;5.28;2.20;;;16.10;99.90;;;;;;5060608;28;20022;-71
2021/08/14 01:54:43;;;;;;;6.47;1.80;;;16.10;99.90;;;;;;5045357;28;20056;-70
2021/08/14 01:57:09;;;;;;;4.75;2.17;;;16.10;99.90;;;;;;5045476;28;20049;-72
2021/08/14 01:59:36;;;;;;;4.88;1.73;;;16.00;99.90;;;;;;5045223;28;20025;-72
2021/08/14 02:02:05;;;;;;;5.90;2.35;;;16.00;99.90;;;;;;5045314;28;20030;-71
2021/08/14 02:04:31;;;;;;;6.40;2.00;;;16.00;99.90;;;;;;5045673;28;20025;-71
2021/08/14 02:06:58;;;;;;;10.10;2.30;;;16.00;99.90;;;;;;5045487;28;20026;-72
2021/08/14 02:09:24;;;;;;;4.85;2.58;;;16.00;99.90;;;;;;5044857;28;20033;-71
2021/08/14 02:11:50;;;;;;;9.13;2.75;;;16.00;99.90;;;;;;5045074;28;20433;-72
2021/08/14 02:14:16;;;;;;;7.63;2.40;;;16.00;99.90;;;;;;5060544;28;20021;-71
2021/08/14 02:16:42;;;;;;;9.73;2.95;;;15.90;99.90;;;;;;5044920;28;20037;-71
2021/08/14 02:19:07;;;;;;;6.25;2.22;;;15.80;99.90;;;;;;5044439;28;20101;-70
2021/08/14 02:21:33;;;;;;;3.55;2.10;;;15.80;99.90;;;;;;5060524;28;20034;-71
2021/08/14 02:24:00;;;;;;;3.25;1.95;;;15.70;99.90;;;;;;5045052;28;20023;-72
2021/08/14 02:26:26;;;;;;;4.63;2.30;;;15.80;99.90;;;;;;5045051;28;20042;-72
2021/08/14 02:28:52;;;;;;;15.52;3.53;;;15.80;99.90;;;;;;5044684;28;20029;-71
2021/08/14 02:31:18;;;;;;;7.40;2.88;;;15.70;99.90;;;;;;5044942;28;20152;-72
2021/08/14 02:33:44;;;;;;;12.32;2.83;;;15.70;99.90;;;;;;5044746;28;20026;-70
2021/08/14 02:36:11;;;;;;;6.88;2.38;;;15.70;99.90;;;;;;5044663;28;20064;-73
2021/08/14 02:38:38;;;;;;;11.02;3.17;;;15.70;99.90;;;;;;5044294;28;20037;-71
2021/08/14 02:41:06;;;;;;;7.18;3.08;;;15.70;99.90;;;;;;5059586;28;20033;-69
2021/08/14 02:43:32;;;;;;;4.35;2.58;;;15.70;99.90;;;;;;5044977;28;20021;-70
2021/08/14 02:46:01;;;;;;;10.43;2.70;;;15.70;99.90;;;;;;5044516;28;20075;-71
2021/08/14 02:48:30;;;;;;;7.38;2.25;;;15.70;99.90;;;;;;5044516;28;20079;-70
2021/08/14 02:50:57;;;;;;;8.93;3.13;;;15.70;99.90;;;;;;5044768;28;20029;-70
2021/08/14 02:53:23;;;;;;;8.75;3.38;;;15.70;99.90;;;;;;5044474;28;20021;-70
2021/08/14 02:55:49;;;;;;;10.70;2.67;;;15.70;99.90;;;;;;5042852;28;20033;-71
2021/08/14 02:58:15;;;;;;;6.43;2.97;;;15.70;99.90;;;;;;5044199;28;20033;-70
2021/08/14 03:00:41;;;;;;;11.48;2.70;;;15.60;99.90;;;;;;5044142;28;20053;-70
2021/08/14 03:03:07;;;;;;;8.30;2.72;;;15.70;99.90;;;;;;5044110;28;20033;-72
2021/08/14 03:05:32;;;;;;;14.85;2.03;;;15.60;99.90;;;;;;5044068;28;20486;-70
2021/08/14 03:07:59;;;;;;;14.60;2.67;;;15.70;99.90;;;;;;5044267;28;20032;-71
2021/08/14 03:10:24;;;;;;;11.55;2.30;;;15.70;99.90;;;;;;5044206;28;20525;-70
2021/08/14 03:12:50;;;;;;;4.65;2.30;;;15.70;99.90;;;;;;5059247;28;20113;-69
2021/08/14 03:15:22;;;;;;;8.07;2.47;;;15.60;99.90;;;;;;5100519;27;20467;-70
2021/08/14 03:17:53;;;;;;;7.05;2.40;;;15.70;99.90;;;;;;5100249;28;20567;-69
2021/08/14 03:20:18;;;;;;;6.63;2.72;;;15.70;99.90;;;;;;5100778;28;20024;-70
2021/08/14 03:22:44;;;;;;;12.45;2.50;;;15.60;99.90;;;;;;5116187;28;20038;-71
2021/08/14 03:25:10;;;;;;;5.60;2.15;;;15.70;99.90;;;;;;5100611;28;20028;-69
2021/08/14 03:27:36;;;;;;;8.02;2.92;;;15.70;99.90;;;;;;5100490;28;20084;-72
2021/08/14 03:30:04;;;;;;;10.55;3.55;;;15.70;99.90;;;;;;5100798;28;20020;-72
2021/08/14 03:32:29;;;;;;;10.60;2.67;;;15.70;99.90;;;;;;5100518;28;20111;-70
2021/08/14 03:34:55;;;;;;;6.88;3.53;;;15.70;99.90;;;;;;5115564;28;20072;-69
2021/08/14 03:37:21;;;;;;;9.88;3.22;;;15.70;99.90;;;;;;5115663;28;20029;-70
2021/08/14 03:39:47;;;;;;;8.85;3.35;;;15.70;99.90;;;;;;5100377;28;20084;-72
2021/08/14 03:42:12;;;;;;;10.77;3.20;;;15.70;99.90;;;;;;5116012;28;20074;-69
2021/08/14 03:44:38;;;;;;;8.15;3.08;;;15.70;99.90;;;;;;5115568;28;20090;-70
2021/08/14 03:47:04;;;;;;;15.52;3.28;;;15.70;99.90;;;;;;5100246;28;20028;-70
2021/08/14 03:49:29;;;;;;;7.25;2.90;;;15.70;99.90;;;;;;5100325;28;20036;-71
2021/08/14 03:51:55;;;;;;;7.90;3.17;;;15.70;99.90;;;;;;5100017;28;20036;-72
2021/08/14 03:54:20;;;;;;;8.45;3.10;;;15.70;99.90;;;;;;5099542;28;20036;-69
2021/08/14 03:56:46;;;;;;;13.75;3.35;;;15.70;99.90;;;;;;5115395;28;20028;-69
2021/08/14 03:59:12;;;;;;;6.53;3.83;;;15.70;99.90;;;;;;5100113;28;20111;-70
2021/08/14 04:01:39;;;;;;;29.98;3.72;;;15.60;99.90;;;;;;5115660;28;20070;-69
2021/08/14 04:04:04;;;;;;;9.05;3.50;;;15.60;99.90;;;;;;5099396;28;20024;-70
2021/08/14 04:06:30;;;;;;;9.15;3.20;;;15.60;99.90;;;;;;5100035;28;20115;-71
2021/08/14 04:08:55;;;;;;;8.57;3.25;;;15.60;99.90;;;;;;5098470;28;20032;-70
2021/08/14 04:11:21;;;;;;;8.68;3.13;;;15.60;99.90;;;;;;5099894;28;20063;-69
2021/08/14 04:13:46;;;;;;;10.18;3.97;;;15.60;99.90;;;;;;5114597;28;20498;-69
2021/08/14 04:16:12;;;;;;;14.25;3.38;;;15.60;99.90;;;;;;5099925;28;20032;-70
2021/08/14 04:18:38;;;;;;;9.07;3.08;;;15.70;99.90;;;;;;5099599;28;20060;-69
2021/08/14 04:21:04;;;;;;;26.67;3.58;;;15.60;99.90;;;;;;5099457;28;20041;-68
2021/08/14 04:23:34;;;;;;;18.73;3.75;;;15.60;99.90;;;;;;5099289;28;20027;-69
2021/08/14 04:26:01;;;;;;;19.40;2.50;;;15.60;99.90;;;;;;5090468;28;20479;-70
2021/08/14 04:28:30;;;;;;;6.85;3.58;;;15.60;99.90;;;;;;5086360;28;20024;-68
2021/08/14 04:30:55;;;;;;;6.43;3.33;;;15.70;99.90;;;;;;5085797;28;20032;-69
2021/08/14 04:33:21;;;;;;;9.82;3.05;;;15.60;99.90;;;;;;5085259;28;20052;-68
2021/08/14 04:35:49;;;;;;;8.07;3.33;;;15.70;99.90;;;;;;5085821;28;20036;-70
2021/08/14 04:38:14;;;;;;;6.43;2.53;;;15.70;99.90;;;;;;5085766;28;20074;-69
2021/08/14 04:40:40;;;;;;;8.07;2.80;;;15.70;99.90;;;;;;5085455;28;20111;-71
2021/08/14 04:43:05;;;;;;;5.85;2.75;;;15.70;99.90;;;;;;5085615;28;20078;-70
2021/08/14 04:45:32;;;;;;;6.20;3.25;;;15.60;99.90;;;;;;5085600;28;20020;-70
2021/08/14 04:47:58;;;;;;;10.20;3.03;;;15.70;99.90;;;;;;5085723;28;20037;-72
2021/08/14 04:50:23;;;;;;;11.00;3.17;;;15.70;99.90;;;;;;5100784;28;20071;-70
2021/08/14 04:52:49;;;;;;;16.77;3.28;;;15.70;99.90;;;;;;5085601;28;20025;-71
2021/08/14 04:55:15;;;;;;;11.48;2.97;;;15.80;99.90;;;;;;5085094;28;20484;-70
2021/08/14 04:57:41;;;;;;;11.80;2.78;;;15.70;99.90;;;;;;5085528;28;20029;-70
2021/08/14 05:00:07;;;;;;;10.77;2.80;;;15.80;99.90;;;;;;5084832;28;20051;-70
2021/08/14 05:02:32;;;;;;;14.55;3.05;;;15.80;99.90;;;;;;5085362;28;20032;-71
2021/08/14 05:04:59;;;;;;;2.95;1.63;;;15.80;99.90;;;;;;5085544;28;20052;-71
2021/08/14 05:07:25;;;;;;;10.65;2.78;;;15.80;99.90;;;;;;5083088;28;20095;-70
2021/08/14 05:09:54;;;;;;;3.13;2.13;;;15.90;99.90;;;;;;5068847;28;20894;-69
2021/08/14 05:12:20;;;;;;;12.43;3.03;;;15.80;99.90;;;;;;5072086;28;20033;-69
2021/08/14 05:14:45;;;;;;;10.40;2.65;;;15.90;99.90;;;;;;5084736;28;20047;-70
2021/08/14 05:17:11;;;;;;;13.55;2.80;;;15.90;99.90;;;;;;5084743;28;20037;-70
2021/08/14 05:19:37;;;;;;;8.93;1.98;;;15.90;99.90;;;;;;5082348;28;20035;-69
2021/08/14 05:22:02;;;;;;;10.18;2.75;;;15.90;99.90;;;;;;5064134;28;20501;-70
2021/08/14 05:24:28;;;;;;;10.38;3.00;;;16.00;99.90;;;;;;5073477;28;20102;-70
2021/08/14 05:27:00;;;;;;;9.18;3.47;;;16.00;99.90;;;;;;5064817;28;20689;-69
2021/08/14 05:29:26;;;;;;;6.22;3.13;;;16.00;99.90;;;;;;5084229;28;20116;-70
2021/08/14 05:31:52;;;;;;;11.18;3.30;;;15.90;99.90;;;;;;5071012;28;20029;-70
2021/08/14 05:34:17;;;;;;;14.45;3.35;;;16.00;99.90;;;;;;5080778;28;20047;-69
2021/08/14 05:36:43;;;;;;;8.43;3.22;;;16.00;99.90;;;;;;5067922;28;20184;-69
2021/08/14 05:39:08;;;;;;;13.20;3.33;;;16.10;99.90;;;;;;5062058;28;20037;-70
2021/08/14 05:41:39;;;;;;;6.97;2.72;;;16.10;99.90;;;;;;5064220;28;20036;-71
2021/08/14 05:44:06;;;;;;;19.02;3.35;;;16.10;99.90;;;;;;5064702;28;20040;-72
2021/08/14 05:46:31;;;;;;;10.95;2.63;;;16.10;99.90;;;;;;5064666;28;20021;-71
2021/08/14 05:48:57;;;;;;;13.65;2.95;;;16.30;99.90;;;;;;5064125;28;20031;-72
2021/08/14 05:51:24;;;;;;;8.07;3.05;;;16.20;99.90;;;;;;5081278;28;20036;-71
2021/08/14 05:53:50;;;;;;;16.33;3.65;;;16.20;99.90;;;;;;5084240;28;20101;-72
2021/08/14 05:56:15;;;;;;;7.57;3.45;;;16.30;99.90;;;;;;5084244;28;20029;-71
2021/08/14 05:58:41;;;;;;;5.95;3.25;;;16.40;99.90;;;;;;5083845;28;20028;-72
2021/08/14 06:01:07;;;;;;;7.80;3.55;;;16.40;99.90;;;;;;5084533;28;20035;-71
2021/08/14 06:03:35;;;;;;;7.97;3.33;;;16.50;99.90;;;;;;5083232;28;20024;-72
2021/08/14 06:06:02;;;;;;;31.73;4.00;;;16.60;99.90;;;;;;5082656;28;20030;-72
2021/08/14 06:08:28;;;;;;;15.35;3.33;;;16.60;99.90;;;;;;5070383;28;20035;-72
2021/08/14 06:10:54;;;;;;;16.33;4.05;;;16.70;99.90;;;;;;5100912;28;20028;-72
2021/08/14 06:13:19;;;;;;;12.43;3.60;;;16.70;99.90;;;;;;5084660;28;20102;-72
2021/08/14 06:15:45;;;;;;;16.33;3.80;;;16.70;99.90;;;;;;5084318;28;20100;-71
2021/08/14 06:18:11;;;;;;;22.65;3.97;;;16.80;99.90;;;;;;5064715;28;20032;-71
2021/08/14 06:20:37;;;;;;;8.73;2.50;;;16.80;99.90;;;;;;5064909;28;20025;-71
2021/08/14 06:23:03;;;;;;;4.75;2.63;;;16.80;99.90;;;;;;5065492;28;20024;-72
2021/08/14 06:25:29;;;;;;;23.30;3.67;;;16.90;99.90;;;;;;5064954;28;20048;-73
2021/08/14 06:27:54;;;;;;;7.07;2.92;;;16.90;99.90;;;;;;5065146;28;20519;-70
2021/08/14 06:30:20;;;;;;;5.43;2.80;;;16.90;99.90;;;;;;5065071;28;20043;-76
2021/08/14 06:32:45;;;;;;;6.63;3.00;;;17.00;99.90;;;;;;5064578;28;20029;-71
2021/08/14 06:35:11;;;;;;;10.68;3.03;;;17.10;99.90;;;;;;5074403;28;20048;-75
2021/08/14 06:37:41;;;;;;;18.88;3.40;;;17.10;99.90;;;;;;5100538;28;20029;-73
2021/08/14 06:40:08;;;;;;;8.02;3.42;;;17.30;99.90;;;;;;5084781;28;20032;-74
2021/08/14 06:42:36;;;;;;;13.23;3.45;;;17.40;99.90;;;;;;5084756;28;20454;-73
2021/08/14 06:45:02;;;;;;;11.32;3.58;;;17.50;99.90;;;;;;5085169;28;20035;-77
2021/08/14 06:47:34;;;;;;;12.20;3.20;;;17.60;99.90;;;;;;5084821;28;20024;-79
2021/08/14 06:50:01;;;;;;;7.40;3.42;;;17.60;99.90;;;;;;5100441;28;20028;-73
2021/08/14 06:52:26;;;;;;;5.22;2.53;;;17.60;99.90;;;;;;5083270;28;20075;-75
2021/08/14 06:54:52;;;;;;;14.48;3.85;;;17.50;99.90;;;;;;5084603;28;20416;-72
2021/08/14 06:57:18;;;;;;;4.70;2.58;;;17.60;99.90;;;;;;5085824;28;20397;-75
2021/08/14 06:59:43;;;;;;;4.72;2.72;;;17.60;99.90;;;;;;5064559;28;20032;-74
2021/08/14 07:02:09;;;;;;;5.88;2.40;;;17.70;99.90;;;;;;5064617;28;20039;-78
2021/08/14 07:04:37;;;;;;;10.20;3.10;;;17.70;99.90;;;;;;5063380;28;20082;-73
2021/08/14 07:07:03;;;;;;;11.35;3.47;;;17.80;99.90;;;;;;5064693;28;20024;-76
2021/08/14 07:09:29;;;;;;;15.35;3.45;;;17.80;99.90;;;;;;5064640;28;20072;-72
2021/08/14 07:11:55;;;;;;;8.73;2.53;;;17.90;99.90;;;;;;5064710;28;20428;-71
2021/08/14 07:14:20;;;;;;;3.88;2.33;;;17.90;99.90;;;;;;5064176;28;20120;-72
2021/08/14 07:16:46;;;;;;;9.35;3.22;;;17.90;99.90;;;;;;5072293;28;20024;-74
2021/08/14 07:19:11;;;;;;;8.70;3.13;;;18.00;99.90;;;;;;5099761;28;20032;-76
2021/08/14 07:21:37;;;;;;;13.75;3.08;;;18.00;99.90;;;;;;5084510;28;20032;-72
2021/08/14 07:24:03;;;;;;;3.97;2.05;;;18.10;99.90;;;;;;5077824;28;20067;-72
2021/08/14 07:26:31;;;;;;;5.95;2.75;;;18.10;99.90;;;;;;5062535;28;20089;-71
2021/08/14 07:28:57;;;;;;;12.32;2.72;;;18.20;99.90;;;;;;5063953;28;20129;-74
2021/08/14 07:31:23;;;;;;;11.43;3.15;;;18.20;99.90;;;;;;5064676;28;20032;-76
2021/08/14 07:33:48;;;;;;;13.90;3.22;;;18.40;99.90;;;;;;5064017;28;20045;-73
2021/08/14 07:36:14;;;;;;;8.55;2.72;;;18.40;99.90;;;;;;5064139;28;20025;-71
2021/08/14 07:38:46;;;;;;;11.20;3.03;;;18.40;99.90;;;;;;5064239;28;20359;-75
2021/08/14 07:41:11;;;;;;;16.23;3.22;;;18.40;99.90;;;;;;5062772;28;20029;-74
2021/08/14 07:43:37;;;;;;;17.30;3.55;;;18.40;99.90;;;;;;5062686;28;20065;-73
2021/08/14 07:46:08;;;;;;;10.57;2.85;;;18.50;99.90;;;;;;5063869;28;20499;-72
2021/08/14 07:48:34;;;;;;;7.43;2.97;;;18.50;99.90;;;;;;5063573;28;20051;-75
2021/08/14 07:51:01;;;;;;;9.45;2.45;;;18.60;99.90;;;;;;5063258;28;20021;-72
2021/08/14 07:53:27;;;;;;;10.43;2.13;;;18.60;99.90;;;;;;5064121;28;20551;-72
2021/08/14 07:55:52;;;;;;;7.85;2.65;;;18.60;99.90;;;;;;5064331;28;20025;-74
2021/08/14 07:58:18;;;;;;;4.97;2.53;;;18.70;99.90;;;;;;5063983;28;20025;-71
2021/08/14 08:00:44;;;;;;;15.13;3.33;;;18.80;99.90;;;;;;5065715;28;20481;-72
2021/08/14 08:03:10;;;;;;;17.67;2.75;;;18.90;99.90;;;;;;5066700;28;20462;-72
2021/08/14 08:05:36;;;;;;;9.95;2.85;;;18.90;99.90;;;;;;5066592;28;20093;-74
2021/08/14 08:08:04;;;;;;;6.88;2.55;;;19.00;99.90;;;;;;5068226;28;20021;-72
2021/08/14 08:10:30;;;;;;;9.95;2.80;;;19.00;99.90;;;;;;5067263;28;20036;-74
2021/08/14 08:12:55;;;;;;;8.15;2.38;;;19.10;99.90;;;;;;5066617;28;20025;-71
2021/08/14 08:15:22;;;;;;;12.85;2.90;;;19.20;99.90;;;;;;5066027;28;20106;-72
2021/08/14 08:17:47;;;;;;;6.35;2.65;;;19.30;99.90;;;;;;5065741;28;20512;-76
2021/08/14 08:20:15;;;;;;;7.28;2.55;;;19.30;99.90;;;;;;5065139;28;20036;-71
2021/08/14 08:22:42;;;;;;;8.43;2.55;;;19.50;99.90;;;;;;5066795;28;20029;-73
2021/08/14 08:25:08;;;;;;;12.07;2.83;;;19.50;99.90;;;;;;5065727;28;20033;-73
2021/08/14 08:27:45;;;;;;;9.40;2.70;;;19.70;99.90;;;;;;5066395;28;20086;-72
2021/08/14 08:30:12;;;;;;;18.50;3.15;;;19.70;99.90;;;;;;5065817;28;20100;-72
2021/08/14 08:32:37;;;;;;;8.27;2.88;;;19.70;99.90;;;;;;5065946;28;20029;-71
2021/08/14 08:35:05;;;;;;;10.40;2.75;;;19.70;99.90;;;;;;5064157;28;20048;-69
2021/08/14 08:37:30;;;;;;;10.98;3.22;;;19.80;99.90;;;;;;5066176;28;20047;-75
2021/08/14 08:39:56;;;;;;;13.27;2.92;;;19.90;99.90;;;;;;5066122;28;20108;-71
2021/08/14 08:42:22;;;;;;;10.05;3.10;;;20.10;99.90;;;;;;5064046;28;20025;-72
2021/08/14 08:44:48;;;;;;;10.15;3.17;;;20.20;99.90;;;;;;5065663;28;20040;-76
2021/08/14 08:47:16;;;;;;;15.32;3.08;;;20.30;99.90;;;;;;5065529;28;20071;-71
2021/08/14 08:49:55;;;;;;;9.05;2.88;;;20.50;99.90;;;;;;5064087;28;20494;-71
2021/08/14 08:52:21;;;;;;;18.63;2.83;;;20.60;99.90;;;;;;5065151;28;20049;-71
2021/08/14 08:54:48;;;;;;;8.00;2.20;;;20.60;99.90;;;;;;5065428;28;20044;-74
2021/08/14 08:57:14;;;;;;;6.32;2.40;;;20.70;99.90;;;;;;5065501;28;20028;-74
2021/08/14 08:59:40;;;;;;;5.05;2.55;;;20.70;99.90;;;;;;5065389;28;20093;-70
2021/08/14 09:02:27;;;;;;;7.35;2.33;;;20.70;99.90;;;;;;5064791;28;20021;-75
2021/08/14 09:05:18;;;;;;;9.32;2.08;;;20.70;99.90;;;;;;5065747;28;20033;-70
2021/08/14 09:07:46;;;;;;;14.00;3.20;;;20.70;99.90;;;;;;5064139;28;20033;-71
2021/08/14 09:10:15;;;;;;;12.25;3.90;;;20.70;99.90;;;;;;5064892;28;20037;-73
2021/08/14 09:12:43;;;;;;;8.27;2.75;;;20.70;99.90;;;;;;5065227;28;20036;-71
2021/08/14 09:15:16;;;;;;;6.22;1.98;;;20.80;99.90;;;;;;5063692;28;20048;-72
2021/08/14 09:17:43;;;;;;;8.10;1.83;;;20.90;99.90;;;;;;5063857;28;20033;-75
2021/08/14 09:20:15;;;;;;;10.73;2.38;;;21.00;99.90;;;;;;5064383;28;20029;-76
2021/08/14 09:23:00;;;;;;;13.63;2.85;;;21.00;99.90;;;;;;5063503;28;20088;-70
2021/08/14 09:25:26;;;;;;;13.18;2.78;;;21.00;99.90;;;;;;5063755;28;20106;-72
2021/08/14 09:27:57;;;;;;;12.35;2.67;;;21.10;99.90;;;;;;5064795;28;20025;-70
2021/08/14 09:30:44;;;;;;;10.48;2.40;;;21.10;99.90;;;;;;5063177;28;20048;-72
2021/08/14 09:33:13;;;;;;;8.13;2.70;;;21.20;99.90;;;;;;5064966;28;20493;-69
2021/08/14 09:35:38;;;;;;;6.43;3.05;;;21.10;99.90;;;;;;5064976;28;20031;-75
2021/08/14 09:38:09;;;;;;;11.90;2.83;;;21.20;99.90;;;;;;5064478;28;20068;-73
2021/08/14 09:40:36;;;;;;;8.45;3.22;;;21.20;99.90;;;;;;5064406;28;20032;-72
2021/08/14 09:43:03;;;;;;;5.60;2.03;;;21.30;99.90;;;;;;5063249;28;20029;-71
2021/08/14 09:45:29;;;;;;;9.25;2.72;;;21.50;99.90;;;;;;5063311;28;20543;-73
2021/08/14 09:47:55;;;;;;;7.53;2.10;;;21.60;99.90;;;;;;5064160;28;20021;-73
2021/08/14 09:50:35;;;;;;;5.10;1.98;;;21.90;99.90;;;;;;5064719;28;20100;-75
2021/08/14 09:53:19;;;;;;;8.70;2.25;;;21.90;99.90;;;;;;5063193;28;20057;-74
2021/08/14 09:55:47;;;;;;;9.40;2.85;;;22.00;99.90;;;;;;5063706;28;20190;-77
2021/08/14 09:58:18;;;;;;;8.40;2.05;;;22.10;99.90;;;;;;5063858;28;20033;-70
2021/08/14 10:00:50;;;;;;;9.15;1.85;;;22.30;99.90;;;;;;5064203;28;20032;-81
2021/08/14 10:03:17;;;;;;;10.95;2.20;;;22.60;99.90;;;;;;5064254;28;20025;-76
2021/08/14 10:05:43;;;;;;;6.57;2.40;;;22.70;99.90;;;;;;5064169;28;20033;-73
2021/08/14 10:08:10;;;;;;;6.95;2.53;;;22.80;99.90;;;;;;5064240;28;20438;-72
2021/08/14 10:10:36;;;;;;;5.07;1.80;;;22.90;99.90;;;;;;5063953;28;20026;-76
2021/08/14 10:13:02;;;;;;;7.85;1.90;;;22.80;99.90;;;;;;5064062;28;20029;-74
2021/08/14 10:15:28;;;;;;;13.05;2.28;;;22.80;99.90;;;;;;5063661;28;20048;-71
2021/08/14 10:17:55;;;;;;;4.85;2.03;;;22.80;99.90;;;;;;5063731;28;20032;-73
2021/08/14 10:20:22;;;;;;;4.88;2.08;;;22.70;99.90;;;;;;5063684;28;20043;-69
2021/08/14 10:22:59;;;;;;;4.90;1.75;;;22.70;99.90;;;;;;5063514;28;20029;-75
2021/08/14 10:25:26;;;;;;;6.93;2.50;;;22.50;99.90;;;;;;5063952;28;20029;-73
2021/08/14 10:28:00;;;;;;;8.77;2.13;;;22.30;99.90;;;;;;5063920;28;20032;-70
2021/08/14 10:30:53;;;;;;;6.03;2.35;;;22.10;99.90;;;;;;5064732;28;20028;-71
2021/08/14 10:33:28;;;;;;;8.05;2.03;;;21.90;99.90;;;;;;5062326;28;20746;-74
2021/08/14 10:35:55;;;;;;;12.63;1.75;;;21.80;99.90;;;;;;5062231;28;20040;-74
2021/08/14 10:38:39;;;;;;;5.30;1.83;;;21.80;99.90;;;;;;5063372;28;20029;-73
2021/08/14 10:41:06;;;;;;;5.53;1.85;;;21.90;99.90;;;;;;5063729;28;20039;-72
2021/08/14 10:43:51;;;;;;;16.48;2.70;;;22.20;99.90;;;;;;5062048;28;20033;-75
2021/08/14 10:46:31;;;;;;;8.27;1.75;;;22.50;99.90;;;;;;5063458;28;20090;-73
2021/08/14 10:48:59;;;;;;;4.75;2.05;;;22.90;99.90;;;;;;5063615;28;20033;-78
2021/08/14 10:51:46;;;;;;;5.65;1.80;;;23.00;99.90;;;;;;5062250;28;20029;-76
2021/08/14 10:54:12;;;;;;;6.18;2.13;;;22.90;99.90;;;;;;5062892;28;20048;-74
2021/08/14 10:56:52;;;;;;;14.15;1.67;;;22.70;99.90;;;;;;5060945;28;20037;-74
2021/08/14 10:59:39;;;;;;;4.57;1.75;;;22.80;99.90;;;;;;5060808;28;20060;-71
2021/08/14 11:02:28;;;;;;;5.85;2.10;;;23.00;99.90;;;;;;5063124;28;20036;-71
2021/08/14 11:04:55;;;;;;;10.27;1.92;;;23.10;99.90;;;;;;5062726;28;20031;-71
2021/08/14 11:07:21;;;;;;;12.35;2.65;;;23.20;99.90;;;;;;5065396;28;20037;-74
2021/08/14 11:10:07;;;;;;;9.75;2.20;;;23.30;99.90;;;;;;5062899;28;20076;-73
2021/08/14 11:12:41;;;;;;;9.75;2.53;;;23.20;99.90;;;;;;5061607;28;20021;-75
2021/08/14 11:15:12;;;;;;;7.82;2.15;;;23.30;99.90;;;;;;5062285;28;20613;-73
2021/08/14 11:17:38;;;;;;;4.05;2.03;;;23.50;99.90;;;;;;5063218;28;20037;-72
2021/08/14 11:20:24;;;;;;;4.00;1.67;;;23.60;99.90;;;;;;5061903;28;20074;-72
2021/08/14 11:22:55;;;;;;;11.30;2.63;;;23.50;99.90;;;;;;5061340;28;20535;-73
2021/08/14 11:25:36;;;;;;;3.90;1.65;;;23.30;99.90;;;;;;5062869;28;20393;-73
2021/08/14 11:28:06;;;;;;;4.03;1.70;;;23.30;99.90;;;;;;5063370;28;20048;-75
2021/08/14 11:30:38;;;;;;;6.15;1.85;;;23.30;99.90;;;;;;5061864;28;20033;-76
2021/08/14 11:33:05;;;;;;;3.45;1.45;;;23.40;99.90;;;;;;5062648;28;20032;-74
2021/08/14 11:35:33;;;;;;;15.48;2.05;;;23.40;99.90;;;;;;5063945;28;20039;-72
2021/08/14 11:38:02;;;;;;;2.53;1.52;;;23.40;99.90;;;;;;5065787;28;20082;-73
2021/08/14 11:40:33;;;;;;;2.40;1.42;;;23.40;99.90;;;;;;5067210;28;20025;-72
2021/08/14 11:43:05;;;;;;;8.30;2.47;;;23.20;99.90;;;;;;5066534;28;20052;-71
2021/08/14 11:45:34;;;;;;;10.48;2.13;;;23.10;99.90;;;;;;5067000;28;20059;-69
2021/08/14 11:48:03;;;;;;;7.38;2.00;;;23.00;99.90;;;;;;5067057;28;20081;-73
2021/08/14 11:50:37;;;;;;;5.30;1.67;;;23.20;99.90;;;;;;5066516;28;20033;-72
2021/08/14 11:53:08;;;;;;;12.18;2.05;;;23.30;99.90;;;;;;5067025;28;20051;-71
2021/08/14 11:55:34;;;;;;;8.35;2.33;;;23.40;99.90;;;;;;5066644;28;20033;-70
2021/08/14 11:58:00;;;;;;;5.72;2.30;;;23.60;99.90;;;;;;5066996;28;20025;-79
2021/08/14 12:00:29;;;;;;;4.05;1.58;;;23.90;99.90;;;;;;5064904;28;20031;-77
2021/08/14 12:03:17;;;;;;;6.45;1.80;;;24.10;99.90;;;;;;5070808;28;20029;-73
2021/08/14 12:05:45;;;;;;;11.98;1.98;;;24.20;99.90;;;;;;5085990;28;20025;-73
2021/08/14 12:08:28;;;;;;;4.50;1.45;;;24.30;99.90;;;;;;5084632;28;20025;-73
2021/08/14 12:10:55;;;;;;;7.55;1.58;;;24.50;99.90;;;;;;5084765;28;20391;-71
2021/08/14 12:13:21;;;;;;;2.45;1.17;;;24.60;99.90;;;;;;5086217;28;20075;-72
2021/08/14 12:15:48;;;;;;;2.72;1.25;;;24.50;99.90;;;;;;5084737;28;20025;-74
2021/08/14 12:18:31;;;;;;;11.05;1.90;;;24.40;99.90;;;;;;5086034;28;20031;-77
2021/08/14 12:21:01;;;;;;;2.90;1.35;;;24.60;99.90;;;;;;5084925;28;20055;-75
2021/08/14 12:23:30;;;;;;;6.93;1.65;;;24.80;99.90;;;;;;5086642;28;20036;-73
2021/08/14 12:26:06;;;;;;;4.00;1.42;;;24.80;99.90;;;;;;5086301;28;20032;-74
2021/08/14 12:28:38;;;;;;;3.30;1.55;;;24.80;99.90;;;;;;5086240;28;20035;-73
2021/08/14 12:31:18;;;;;;;6.45;1.70;;;24.60;99.90;;;;;;5086109;28;20058;-75
2021/08/14 12:33:55;;;;;;;5.78;1.48;;;24.70;99.90;;;;;;5086088;28;20528;-70
2021/08/14 12:36:35;;;;;;;6.53;1.67;;;25.10;99.90;;;;;;5085552;28;20028;-74
2021/08/14 12:39:04;;;;;;;6.57;1.63;;;25.60;99.90;;;;;;5085936;28;20096;-75
2021/08/14 12:41:41;;;;;;;4.70;1.67;;;25.90;99.90;;;;;;5086194;28;20028;-74
2021/08/14 12:44:12;;;;;;;2.42;1.50;;;25.90;99.90;;;;;;5085809;28;20028;-69
2021/08/14 12:46:38;;;;;;;7.05;1.50;;;25.70;99.90;;;;;;5085994;28;20048;-72
2021/08/14 12:49:20;;;;;;;5.03;1.92;;;25.90;99.90;;;;;;5086150;28;20020;-72